createdAt,value
2023-02-11T00:01:09.225Z,30.30
2023-02-11T00:03:38.756Z,30.02
2023-02-11T00:06:10.260Z,30.90
2023-02-11T00:08:38.948Z,29.33
2023-02-11T00:11:07.636Z,27.33
2023-02-11T00:13:35.688Z,27.33
2023-02-11T00:16:08.337Z,28.90
2023-02-11T00:18:37.261Z,28.42
2023-02-11T00:21:09.709Z,29.13
2023-02-11T00:23:37.836Z,26.15
2023-02-11T00:26:12.320Z,25.52
2023-02-11T00:28:41.398Z,28.00
2023-02-11T00:31:12.058Z,28.30
2023-02-11T00:33:40.429Z,28.98
2023-02-11T00:36:13.698Z,28.08
2023-02-11T00:38:43.578Z,27.50
2023-02-11T00:41:13.098Z,27.52
2023-02-11T00:43:41.757Z,27.00
2023-02-11T00:46:10.492Z,25.27
2023-02-11T00:48:38.714Z,25.20
2023-02-11T00:51:07.358Z,26.13
2023-02-11T00:53:37.167Z,24.65
2023-02-11T00:56:05.848Z,25.42
2023-02-11T00:58:34.816Z,24.70
2023-02-11T01:01:02.897Z,27.40
2023-02-11T01:03:31.454Z,21.98
2023-02-11T01:05:59.483Z,22.25
2023-02-11T01:08:27.884Z,23.35
2023-02-11T01:10:58.899Z,25.38
2023-02-11T01:13:28.632Z,26.63
2023-02-11T01:15:57.371Z,23.88
2023-02-11T01:18:26.155Z,22.50
2023-02-11T01:20:54.486Z,24.90
2023-02-11T01:23:24.892Z,23.98
2023-02-11T01:25:53.492Z,23.05
2023-02-11T01:28:25.354Z,23.98
2023-02-11T01:30:54.247Z,24.50
2023-02-11T01:33:23.414Z,25.02
2023-02-11T01:35:52.122Z,27.40
2023-02-11T01:38:23.007Z,26.80
2023-02-11T01:40:52.994Z,23.23
2023-02-11T01:43:23.368Z,26.48
2023-02-11T01:46:13.708Z,20.80
2023-02-11T01:48:45.194Z,25.08
2023-02-11T01:51:16.504Z,26.70
2023-02-11T01:54:03.429Z,25.20
2023-02-11T01:56:50.632Z,23.80
2023-02-11T01:59:24.039Z,25.60
2023-02-11T02:01:58.094Z,24.60
2023-02-11T02:04:32.477Z,22.85
2023-02-11T02:07:04.621Z,25.58
2023-02-11T02:09:39.335Z,25.05
2023-02-11T02:12:07.652Z,25.93
2023-02-11T02:14:40.525Z,24.60
2023-02-11T02:17:11.524Z,24.77
2023-02-11T02:20:09.095Z,25.50
2023-02-11T02:23:19.145Z,27.08
2023-02-11T02:26:19.808Z,23.80
2023-02-11T02:29:09.697Z,24.98
2023-02-11T02:31:55.765Z,26.75
2023-02-11T02:37:05.422Z,23.52
2023-02-11T02:39:37.049Z,25.40
2023-02-11T02:42:06.089Z,25.02
2023-02-11T02:44:35.512Z,25.92
2023-02-11T02:47:03.575Z,24.48
2023-02-11T02:49:32.997Z,25.88
2023-02-11T02:52:16.504Z,25.08
2023-02-11T02:55:13.189Z,25.25
2023-02-11T02:57:58.426Z,26.42
2023-02-11T03:00:35.072Z,26.95
2023-02-11T03:03:16.815Z,25.85
2023-02-11T03:05:53.449Z,26.35
2023-02-11T03:08:29.160Z,24.95
2023-02-11T03:13:31.948Z,24.58
2023-02-11T03:16:03.032Z,26.27
2023-02-11T03:18:34.765Z,26.25
2023-02-11T03:21:06.267Z,27.35
2023-02-11T03:23:38.528Z,25.95
2023-02-11T03:26:13.545Z,25.48
2023-02-11T03:28:47.006Z,25.80
2023-02-11T03:31:21.390Z,26.38
2023-02-11T03:33:56.748Z,26.35
2023-02-11T03:36:34.297Z,27.05
2023-02-11T03:39:04.652Z,25.20
2023-02-11T03:41:35.338Z,21.52
2023-02-11T03:44:04.547Z,23.60
2023-02-11T03:46:35.384Z,24.67
2023-02-11T03:49:07.890Z,25.45
2023-02-11T03:51:39.110Z,24.25
2023-02-11T03:54:11.262Z,26.08
2023-02-11T03:56:45.928Z,26.95
2023-02-11T03:59:14.086Z,25.90
2023-02-11T04:01:42.239Z,27.35
2023-02-11T04:04:10.341Z,25.88
2023-02-11T04:06:39.754Z,22.63
2023-02-11T04:09:08.848Z,24.77
2023-02-11T04:11:36.932Z,25.95
2023-02-11T04:14:05.162Z,26.38
2023-02-11T04:16:33.306Z,26.38
2023-02-11T04:19:01.655Z,27.80
2023-02-11T04:21:29.720Z,27.00
2023-02-11T04:23:59.203Z,26.52
2023-02-11T04:26:27.188Z,27.75
2023-02-11T04:28:55.257Z,24.73
2023-02-11T04:31:23.469Z,23.58
2023-02-11T04:33:51.590Z,26.83
2023-02-11T04:36:19.564Z,27.88
2023-02-11T04:38:47.681Z,25.52
2023-02-11T04:41:17.121Z,29.42
2023-02-11T04:43:45.103Z,28.90
2023-02-11T04:46:13.259Z,28.38
2023-02-11T04:48:41.355Z,29.10
2023-02-11T04:51:09.414Z,27.25
2023-02-11T04:53:37.540Z,24.95
2023-02-11T04:56:06.074Z,27.00
2023-02-11T04:58:35.632Z,23.77
2023-02-11T05:01:07.977Z,27.17
2023-02-11T05:03:36.222Z,26.05
2023-02-11T05:06:04.522Z,28.08
2023-02-11T05:08:32.953Z,25.13
2023-02-11T05:11:02.261Z,27.80
2023-02-11T05:13:30.783Z,29.30
2023-02-11T05:16:00.313Z,26.58
2023-02-11T05:18:28.493Z,26.95
2023-02-11T05:20:56.569Z,28.35
2023-02-11T05:23:24.912Z,28.25
2023-02-11T05:25:53.046Z,26.50
2023-02-11T05:28:21.323Z,26.30
2023-02-11T05:30:49.521Z,25.73
2023-02-11T05:33:19.206Z,25.73
2023-02-11T05:35:47.258Z,25.27
2023-02-11T05:38:15.398Z,25.45
2023-02-11T05:40:44.024Z,27.10
2023-02-11T05:43:12.117Z,25.75
2023-02-11T05:45:40.193Z,25.67
2023-02-11T05:48:08.203Z,26.58
2023-02-11T05:50:37.688Z,27.52
2023-02-11T05:53:06.787Z,26.33
2023-02-11T05:55:35.393Z,23.05
2023-02-11T05:58:03.407Z,26.77
2023-02-11T06:00:31.506Z,26.83
2023-02-11T06:02:59.556Z,24.73
2023-02-11T06:05:28.158Z,22.55
2023-02-11T06:07:57.578Z,23.17
2023-02-11T06:10:25.792Z,25.13
2023-02-11T06:12:53.866Z,23.55
2023-02-11T06:15:21.999Z,21.63
2023-02-11T06:17:50.103Z,23.50
2023-02-11T06:20:18.305Z,23.65
2023-02-11T06:22:46.467Z,23.23
2023-02-11T06:25:16.000Z,23.92
2023-02-11T06:27:44.108Z,22.90
2023-02-11T06:30:13.177Z,20.38
2023-02-11T06:32:44.819Z,24.35
2023-02-11T06:35:13.255Z,25.42
2023-02-11T06:37:41.519Z,22.70
2023-02-11T06:40:10.053Z,23.65
2023-02-11T06:42:39.817Z,23.23
2023-02-11T06:45:09.511Z,22.33
2023-02-11T06:47:37.715Z,23.15
2023-02-11T06:50:07.605Z,23.50
2023-02-11T06:52:35.792Z,25.70
2023-02-11T06:55:03.858Z,24.92
2023-02-11T06:57:32.496Z,25.17
2023-02-11T07:00:01.794Z,24.00
2023-02-11T07:02:29.839Z,26.98
2023-02-11T07:04:57.845Z,25.92
2023-02-11T07:07:25.956Z,26.48
2023-02-11T07:09:54.005Z,28.23
2023-02-11T07:12:22.083Z,27.23
2023-02-11T07:14:50.161Z,27.30
2023-02-11T07:17:19.462Z,29.40
2023-02-11T07:19:47.542Z,29.23
2023-02-11T07:22:15.661Z,33.20
2023-02-11T07:24:43.809Z,34.92
2023-02-11T07:27:12.090Z,33.03
2023-02-11T07:29:40.175Z,34.10
2023-02-11T07:32:08.512Z,34.75
2023-02-11T07:34:38.649Z,34.20
2023-02-11T07:37:07.017Z,35.28
2023-02-11T07:39:35.515Z,36.83
2023-02-11T07:42:04.247Z,34.50
2023-02-11T07:44:35.237Z,33.47
2023-02-11T07:47:03.332Z,36.97
2023-02-11T07:49:31.498Z,38.85
2023-02-11T07:52:00.966Z,35.55
2023-02-11T07:54:29.019Z,39.05
2023-02-11T07:56:57.189Z,41.38
2023-02-11T07:59:25.738Z,39.63
2023-02-11T08:01:54.235Z,40.38
2023-02-11T08:04:22.356Z,34.17
2023-02-11T08:06:52.730Z,36.65
2023-02-11T08:09:22.187Z,35.65
2023-02-11T08:11:50.637Z,35.65
2023-02-11T08:14:18.733Z,35.72
2023-02-11T08:16:47.051Z,37.22
2023-02-11T08:19:17.666Z,37.78
2023-02-11T08:21:46.105Z,40.67
2023-02-11T08:24:14.137Z,38.97
2023-02-11T08:26:43.930Z,39.65
2023-02-11T08:29:14.044Z,38.03
2023-02-11T08:31:44.682Z,37.95
2023-02-11T08:34:14.299Z,37.38
2023-02-11T08:36:44.724Z,35.90
2023-02-11T08:39:19.540Z,32.47
2023-02-11T08:41:50.352Z,37.63
2023-02-11T08:44:19.736Z,37.33
2023-02-11T08:46:48.723Z,37.45
2023-02-11T08:49:17.130Z,39.97
2023-02-11T08:51:45.553Z,39.50
2023-02-11T08:54:14.263Z,34.35
2023-02-11T08:56:42.618Z,36.08
2023-02-11T08:59:14.093Z,39.70
2023-02-11T09:01:44.091Z,36.53
2023-02-11T09:04:12.367Z,35.65
2023-02-11T09:06:40.684Z,32.47
2023-02-11T09:09:13.477Z,34.83
2023-02-11T09:11:43.088Z,36.95
2023-02-11T09:14:17.791Z,40.50
2023-02-11T09:16:45.996Z,40.67
2023-02-11T09:19:14.126Z,40.97
2023-02-11T09:21:42.318Z,39.28
2023-02-11T09:24:10.886Z,41.85
2023-02-11T09:26:39.475Z,40.65
2023-02-11T09:29:07.603Z,42.40
2023-02-11T09:31:37.106Z,38.45
2023-02-11T09:34:06.974Z,37.15
2023-02-11T09:36:38.278Z,40.10
2023-02-11T09:39:08.213Z,42.63
2023-02-11T09:42:10.871Z,41.78
2023-02-11T09:44:40.058Z,44.20
2023-02-11T09:47:26.636Z,42.70
2023-02-11T09:49:59.980Z,42.45
2023-02-11T09:52:38.445Z,39.80
2023-02-11T09:55:15.952Z,41.97
2023-02-11T09:57:44.125Z,39.53
2023-02-11T10:00:20.483Z,41.60
2023-02-11T10:03:22.456Z,38.47
2023-02-11T10:06:06.778Z,38.65
2023-02-11T10:08:43.756Z,45.55
2023-02-11T10:11:31.184Z,46.88
2023-02-11T10:14:09.834Z,40.45
2023-02-11T10:16:53.580Z,35.45
2023-02-11T10:19:39.142Z,41.47
2023-02-11T10:22:13.263Z,40.85
2023-02-11T10:24:50.021Z,39.00
2023-02-11T10:27:21.430Z,41.55
2023-02-11T10:29:53.561Z,44.17
2023-02-11T10:32:34.433Z,44.50
2023-02-11T10:35:15.205Z,42.63
2023-02-11T10:37:44.604Z,47.60
2023-02-11T10:40:15.904Z,42.42
2023-02-11T10:42:47.061Z,43.13
2023-02-11T10:45:22.529Z,41.75
2023-02-11T10:47:50.677Z,37.42
2023-02-11T10:50:24.402Z,39.42
2023-02-11T10:52:52.575Z,46.13
2023-02-11T10:55:24.128Z,40.85
2023-02-11T10:57:57.479Z,44.35
2023-02-11T11:00:34.155Z,45.40
2023-02-11T11:03:03.380Z,44.10
2023-02-11T11:05:36.298Z,46.80
2023-02-11T11:08:07.773Z,42.88
2023-02-11T11:10:43.335Z,37.33
2023-02-11T11:16:21.912Z,43.65
2023-02-11T11:18:51.986Z,47.25
2023-02-11T11:21:24.413Z,47.60
2023-02-11T11:23:56.558Z,38.95
2023-02-11T11:26:26.314Z,47.45
2023-02-11T11:29:03.579Z,44.35
2023-02-11T11:31:35.472Z,47.15
2023-02-11T11:34:16.950Z,37.03
2023-02-11T11:36:46.771Z,40.85
2023-02-11T11:39:22.486Z,44.85
2023-02-11T11:41:52.931Z,42.92
2023-02-11T11:44:30.870Z,42.03
2023-02-11T11:47:25.050Z,49.90
2023-02-11T11:50:06.836Z,45.08
2023-02-11T11:52:42.378Z,45.55
2023-02-11T11:57:42.653Z,49.00
2023-02-11T12:00:20.593Z,40.85
2023-02-11T12:03:23.659Z,39.72
2023-02-11T12:06:05.314Z,47.83
2023-02-11T12:08:43.783Z,45.45
2023-02-11T12:11:21.550Z,46.30
2023-02-11T12:14:01.211Z,44.85
2023-02-11T12:16:37.527Z,48.13
2023-02-11T12:19:38.587Z,37.05
2023-02-11T12:22:12.715Z,39.45
2023-02-11T12:24:57.556Z,45.28
2023-02-11T12:27:45.191Z,45.15
2023-02-11T12:30:49.562Z,45.83
2023-02-11T12:33:44.791Z,42.97
2023-02-11T12:36:19.915Z,43.85
2023-02-11T12:39:02.524Z,48.95
2023-02-11T12:42:06.031Z,48.78
2023-02-11T12:44:41.174Z,53.72
2023-02-11T12:47:19.481Z,49.83
2023-02-11T12:50:00.882Z,42.95
2023-02-11T12:52:43.524Z,46.95
2023-02-11T12:55:20.273Z,47.78
2023-02-11T12:57:52.418Z,41.65
2023-02-11T13:00:24.773Z,50.67
2023-02-11T13:03:00.749Z,46.25
2023-02-11T13:05:33.752Z,51.30
2023-02-11T13:08:07.014Z,48.55
2023-02-11T13:10:37.810Z,49.08
2023-02-11T13:13:19.059Z,50.53
2023-02-11T13:15:51.022Z,46.53
2023-02-11T13:18:28.380Z,42.38
2023-02-11T13:21:09.207Z,49.95
2023-02-11T13:23:45.402Z,50.42
2023-02-11T13:26:20.624Z,39.03
2023-02-11T13:28:55.280Z,44.33
2023-02-11T13:31:27.078Z,49.72
2023-02-11T13:33:55.335Z,42.60
2023-02-11T13:36:25.753Z,41.30
2023-02-11T13:39:05.686Z,47.08
2023-02-11T13:41:40.189Z,47.10
2023-02-11T13:44:25.738Z,47.45
2023-02-11T13:46:58.294Z,39.20
2023-02-11T13:49:31.743Z,40.90
2023-02-11T13:52:01.589Z,46.05
2023-02-11T13:54:36.653Z,47.60
2023-02-11T13:57:37.238Z,49.65
2023-02-11T14:00:49.738Z,41.45
2023-02-11T14:03:51.593Z,48.70
2023-02-11T14:07:00.828Z,41.63
2023-02-11T14:09:38.506Z,42.28
2023-02-11T14:12:34.958Z,51.03
2023-02-11T14:17:47.689Z,43.75
2023-02-11T14:20:35.614Z,52.08
2023-02-11T14:23:04.697Z,48.08
2023-02-11T14:25:33.239Z,47.67
2023-02-11T14:28:11.746Z,45.13
2023-02-11T14:30:52.515Z,39.33
2023-02-11T14:33:52.718Z,50.28
2023-02-11T14:36:43.605Z,47.63
2023-02-11T14:39:22.954Z,43.60
2023-02-11T14:41:51.994Z,43.42
2023-02-11T14:44:23.195Z,42.17
2023-02-11T14:46:53.417Z,49.50
2023-02-11T14:49:28.349Z,38.63
2023-02-11T14:52:00.697Z,38.53
2023-02-11T14:54:29.891Z,48.40
2023-02-11T14:57:12.804Z,47.40
2023-02-11T14:59:41.546Z,47.35
2023-02-11T15:02:26.258Z,45.40
2023-02-11T15:04:56.520Z,46.03
2023-02-11T15:07:24.833Z,39.33
2023-02-11T15:09:54.831Z,38.40
2023-02-11T15:12:25.954Z,48.45
2023-02-11T15:14:56.218Z,51.65
2023-02-11T15:17:27.314Z,47.17
2023-02-11T15:20:00.246Z,39.35
2023-02-11T15:22:32.939Z,43.60
2023-02-11T15:25:03.976Z,39.47
2023-02-11T15:27:40.408Z,48.60
2023-02-11T15:30:30.716Z,50.13
2023-02-11T15:33:00.974Z,38.83
2023-02-11T15:35:32.848Z,37.83
2023-02-11T15:38:01.373Z,41.00
2023-02-11T15:40:33.114Z,48.30
2023-02-11T15:43:03.666Z,37.63
2023-02-11T15:45:34.473Z,39.67
2023-02-11T15:48:10.714Z,40.10
2023-02-11T15:50:42.210Z,42.13
2023-02-11T15:53:24.216Z,46.80
2023-02-11T15:55:55.001Z,45.45
2023-02-11T15:58:24.505Z,48.25
2023-02-11T16:00:59.616Z,46.47
2023-02-11T16:03:32.563Z,37.63
2023-02-11T16:06:21.657Z,36.10
2023-02-11T16:09:05.729Z,40.03
2023-02-11T16:11:35.676Z,45.10
2023-02-11T16:14:21.184Z,42.25
2023-02-11T16:16:52.946Z,43.70
2023-02-11T16:19:25.317Z,48.45
2023-02-11T16:21:57.234Z,44.67
2023-02-11T16:24:28.964Z,46.83
2023-02-11T16:27:00.786Z,45.60
2023-02-11T16:29:30.356Z,40.03
2023-02-11T16:32:09.358Z,44.60
2023-02-11T16:34:37.959Z,42.53
2023-02-11T16:37:07.746Z,46.72
2023-02-11T16:39:35.758Z,43.58
2023-02-11T16:42:07.110Z,39.30
2023-02-11T16:44:36.149Z,36.90
2023-02-11T16:47:05.941Z,37.00
2023-02-11T16:49:37.049Z,39.03
2023-02-11T16:52:10.289Z,39.03
2023-02-11T16:54:38.507Z,50.50
2023-02-11T16:57:14.871Z,43.92
2023-02-11T16:59:43.518Z,51.08
2023-02-11T17:02:17.219Z,54.35
2023-02-11T17:04:45.837Z,45.05
2023-02-11T17:07:15.336Z,46.83
2023-02-11T17:09:43.606Z,42.53
2023-02-11T17:12:11.821Z,52.42
2023-02-11T17:14:39.905Z,42.15
2023-02-11T17:17:08.128Z,48.50
2023-02-11T17:19:36.110Z,44.65
2023-02-11T17:22:04.903Z,42.47
2023-02-11T17:24:34.333Z,43.78
2023-02-11T17:27:02.357Z,49.45
2023-02-11T17:29:30.637Z,58.35
2023-02-11T17:31:58.745Z,48.70
2023-02-11T17:34:29.152Z,43.08
2023-02-11T17:36:57.976Z,46.78
2023-02-11T17:39:26.254Z,44.95
2023-02-11T17:41:55.678Z,46.45
2023-02-11T17:44:23.756Z,44.00
2023-02-11T17:46:51.778Z,45.92
2023-02-11T17:49:20.162Z,44.05
2023-02-11T17:51:48.327Z,53.05
2023-02-11T17:54:18.496Z,56.22
2023-02-11T17:56:48.007Z,44.78
2023-02-11T17:59:18.302Z,49.80
2023-02-11T18:01:46.528Z,56.92
2023-02-11T18:04:16.670Z,56.80
2023-02-11T18:06:45.636Z,57.20
2023-02-11T18:09:13.988Z,58.30
2023-02-11T18:11:43.007Z,59.55
2023-02-11T18:14:11.679Z,57.05
2023-02-11T18:16:43.607Z,48.10
2023-02-11T18:19:12.484Z,53.47
2023-02-11T18:21:40.838Z,59.05
2023-02-11T18:24:08.951Z,61.00
2023-02-11T18:26:37.434Z,46.17
2023-02-11T18:29:06.946Z,45.28
2023-02-11T18:31:36.374Z,44.80
2023-02-11T18:34:07.542Z,45.22
2023-02-11T18:36:35.906Z,59.15
2023-02-11T18:39:04.903Z,49.55
2023-02-11T18:41:33.195Z,55.30
2023-02-11T18:44:03.330Z,45.63
2023-02-11T18:46:31.719Z,61.30
2023-02-11T18:48:59.753Z,51.47
2023-02-11T18:51:31.749Z,50.33
2023-02-11T18:54:01.192Z,51.65
2023-02-11T18:56:29.336Z,47.13
2023-02-11T18:59:01.131Z,46.75
2023-02-11T19:01:31.116Z,47.08
2023-02-11T19:04:02.695Z,48.47
2023-02-11T19:06:34.468Z,57.03
2023-02-11T19:09:05.340Z,59.45
2023-02-11T19:11:50.250Z,51.53
2023-02-11T19:14:23.988Z,48.50
2023-02-11T19:16:54.541Z,47.58
2023-02-11T19:19:23.805Z,54.58
2023-02-11T19:21:53.473Z,47.22
2023-02-11T19:24:23.790Z,44.88
2023-02-11T19:26:53.826Z,48.47
2023-02-11T19:29:22.038Z,57.88
2023-02-11T19:31:50.271Z,52.83
2023-02-11T19:34:22.268Z,60.65
2023-02-11T19:36:51.097Z,57.45
2023-02-11T19:39:20.612Z,58.72
2023-02-11T19:41:48.681Z,54.13
2023-02-11T19:44:16.874Z,44.85
2023-02-11T19:46:45.978Z,52.05
2023-02-11T19:49:16.538Z,55.33
2023-02-11T19:51:44.978Z,55.22
2023-02-11T19:54:13.268Z,42.95
2023-02-11T19:56:42.979Z,54.83
2023-02-11T19:59:11.740Z,49.25
2023-02-11T20:01:39.869Z,58.67
2023-02-11T20:04:08.482Z,52.40
2023-02-11T20:06:36.938Z,51.13
2023-02-11T20:09:07.373Z,50.22
2023-02-11T20:11:37.316Z,59.25
2023-02-11T20:14:08.368Z,46.47
2023-02-11T20:16:48.232Z,59.53
2023-02-11T20:19:18.473Z,46.53
2023-02-11T20:21:48.582Z,52.47
2023-02-11T20:24:17.415Z,44.15
2023-02-11T20:26:48.344Z,44.25
2023-02-11T20:29:19.268Z,51.47
2023-02-11T20:31:47.361Z,53.28
2023-02-11T20:34:17.539Z,55.85
2023-02-11T20:36:51.618Z,44.10
2023-02-11T20:39:21.838Z,50.35
2023-02-11T20:41:50.641Z,56.63
2023-02-11T20:44:21.711Z,51.63
2023-02-11T20:46:50.143Z,60.83
2023-02-11T20:49:20.149Z,44.35
2023-02-11T20:51:48.743Z,48.65
2023-02-11T20:54:18.809Z,44.30
2023-02-11T20:56:48.566Z,45.95
2023-02-11T20:59:17.527Z,48.22
2023-02-11T21:01:49.614Z,45.63
2023-02-11T21:04:19.718Z,47.58
2023-02-11T21:06:49.128Z,58.45
2023-02-11T21:09:19.648Z,49.45
2023-02-11T21:11:48.127Z,43.50
2023-02-11T21:14:17.883Z,42.88
2023-02-11T21:16:48.378Z,44.38
2023-02-11T21:19:16.939Z,44.42
2023-02-11T21:21:45.257Z,48.40
2023-02-11T21:24:14.192Z,44.63
2023-02-11T21:26:42.555Z,43.55
2023-02-11T21:29:11.559Z,53.80
2023-02-11T21:31:40.139Z,43.40
2023-02-11T21:34:10.826Z,46.08
2023-02-11T21:36:38.868Z,60.80
2023-02-11T21:39:06.900Z,49.20
2023-02-11T21:41:35.066Z,41.75
2023-02-11T21:44:03.364Z,44.22
2023-02-11T21:46:32.046Z,54.63
2023-02-11T21:49:00.529Z,55.08
2023-02-11T21:51:30.434Z,43.03
2023-02-11T21:54:01.152Z,48.53
2023-02-11T21:56:30.698Z,50.13
2023-02-11T21:59:00.275Z,47.33
2023-02-11T22:01:30.507Z,47.70
2023-02-11T22:03:58.902Z,58.17
2023-02-11T22:06:30.975Z,43.85
2023-02-11T22:09:00.003Z,55.28
2023-02-11T22:11:28.023Z,51.80
2023-02-11T22:13:57.806Z,46.33
2023-02-11T22:16:27.696Z,54.63
2023-02-11T22:18:58.394Z,42.50
2023-02-11T22:21:27.952Z,55.20
2023-02-11T22:23:57.444Z,59.03
2023-02-11T22:26:28.021Z,53.95
2023-02-11T22:28:57.080Z,44.38
2023-02-11T22:31:27.850Z,54.45
2023-02-11T22:33:56.084Z,51.35
2023-02-11T22:36:26.202Z,57.83
2023-02-11T22:38:54.794Z,54.70
2023-02-11T22:41:24.425Z,42.00
2023-02-11T22:43:52.394Z,41.35
2023-02-11T22:46:20.865Z,46.83
2023-02-11T22:48:49.408Z,44.92
2023-02-11T22:51:20.740Z,44.63
2023-02-11T22:53:53.433Z,44.13
2023-02-11T22:56:21.905Z,56.42
2023-02-11T22:58:52.121Z,42.65
2023-02-11T23:01:20.910Z,44.03
2023-02-11T23:03:49.155Z,44.17
2023-02-11T23:06:17.635Z,47.90
2023-02-11T23:08:45.718Z,45.45
2023-02-11T23:11:16.284Z,48.35
2023-02-11T23:13:45.772Z,50.15
2023-02-11T23:16:17.769Z,42.00
2023-02-11T23:18:47.717Z,46.28
2023-02-11T23:21:18.162Z,41.70
2023-02-11T23:23:46.690Z,41.97
2023-02-11T23:26:17.154Z,48.60
2023-02-11T23:28:46.088Z,47.20
2023-02-11T23:31:18.014Z,54.72
2023-02-11T23:33:46.468Z,43.38
2023-02-11T23:36:15.524Z,42.40
2023-02-11T23:38:44.349Z,41.75
2023-02-11T23:41:13.322Z,40.80
2023-02-11T23:43:42.013Z,41.03
2023-02-11T23:46:10.661Z,40.00
2023-02-11T23:48:40.525Z,39.50
2023-02-11T23:51:09.628Z,39.75
2023-02-11T23:53:38.087Z,40.15
2023-02-11T23:56:09.465Z,42.53
2023-02-11T23:58:38.159Z,50.00
